Time;durP1;ratioP1;P1;durP2;ratioP2;P2;SDS_P1;SDS_P2;PMS_P1;PMS_P2;Temp;Humidity;BMP_temperature;BMP_pressure;BME280_temperature;BME280_humidity;BME280_pressure;Samples;Min_cycle;Max_cycle;Signal;HPM_P1;HPM_P2
2022/09/25 00:00:53;;;;;;;50.78;25.70;;;13.90;99.90;;;;;;5078700;28;20026;-66
2022/09/25 00:03:20;;;;;;;48.70;24.73;;;13.90;99.90;;;;;;5076033;28;20017;-68
2022/09/25 00:05:46;;;;;;;47.72;25.02;;;13.90;99.90;;;;;;5077898;28;20099;-66
2022/09/25 00:08:13;;;;;;;52.63;25.58;;;13.90;99.90;;;;;;5078747;28;20028;-67
2022/09/25 00:10:57;;;;;;;43.30;24.00;;;14.00;99.90;;;;;;5073841;28;20028;-67
2022/09/25 00:13:23;;;;;;;53.30;26.27;;;13.90;99.90;;;;;;5097020;28;20114;-67
2022/09/25 00:15:55;;;;;;;46.15;24.92;;;14.00;99.90;;;;;;5078058;28;20549;-67
2022/09/25 00:21:10;;;;;;;52.80;24.55;;;13.90;99.90;;;;;;5074020;28;20066;-66
2022/09/25 00:23:36;;;;;;;53.30;27.50;;;13.90;99.90;;;;;;5069880;28;20020;-67
2022/09/25 00:26:04;;;;;;;50.53;25.98;;;13.90;99.90;;;;;;5082491;28;20027;-68
2022/09/25 00:28:30;;;;;;;54.63;28.33;;;13.90;99.90;;;;;;5085759;28;20031;-68
2022/09/25 00:30:56;;;;;;;55.40;26.42;;;13.90;99.90;;;;;;5079379;28;20032;-66
2022/09/25 00:33:22;;;;;;;53.45;26.33;;;13.90;99.90;;;;;;5082216;28;20057;-68
2022/09/25 00:35:48;;;;;;;52.40;25.95;;;13.90;99.90;;;;;;5085292;28;20036;-68
2022/09/25 00:38:13;;;;;;;51.95;28.33;;;13.90;99.90;;;;;;5072623;28;20035;-68
2022/09/25 00:40:39;;;;;;;50.53;26.98;;;13.90;99.90;;;;;;5077273;28;20105;-68
2022/09/25 00:43:13;;;;;;;55.50;27.92;;;13.90;99.90;;;;;;5077003;28;20024;-67
2022/09/25 00:45:39;;;;;;;51.58;26.48;;;13.90;99.90;;;;;;5084094;28;20020;-67
2022/09/25 00:48:08;;;;;;;52.15;27.30;;;13.90;99.90;;;;;;5086206;28;20386;-66
2022/09/25 00:50:52;;;;;;;55.38;28.48;;;13.90;99.90;;;;;;5080975;28;20598;-68
2022/09/25 00:53:24;;;;;;;61.73;30.90;;;13.90;99.90;;;;;;5080933;28;20016;-67
2022/09/25 00:55:50;;;;;;;55.08;28.48;;;13.90;99.90;;;;;;5081060;28;20381;-68
2022/09/25 00:58:20;;;;;;;53.33;28.48;;;13.80;99.90;;;;;;5084919;28;20016;-67
2022/09/25 01:00:46;;;;;;;56.67;29.92;;;13.80;99.90;;;;;;5077869;28;20111;-66
2022/09/25 01:03:12;;;;;;;58.25;30.30;;;13.80;99.90;;;;;;5081075;28;20099;-66
2022/09/25 01:05:41;;;;;;;66.28;30.42;;;13.80;99.90;;;;;;5077107;28;20024;-67
2022/09/25 01:08:11;;;;;;;64.65;31.40;;;13.70;99.90;;;;;;5086685;28;20025;-67
2022/09/25 01:10:37;;;;;;;66.65;31.90;;;13.70;99.90;;;;;;5085373;28;20420;-67
2022/09/25 01:13:03;;;;;;;59.17;30.17;;;13.60;99.90;;;;;;5077205;28;20032;-67
2022/09/25 01:15:56;;;;;;;57.80;30.90;;;13.60;99.90;;;;;;5079477;28;20115;-66
2022/09/25 01:18:51;;;;;;;62.38;31.10;;;13.60;99.90;;;;;;5040860;28;20024;-67
2022/09/25 01:21:26;;;;;;;;;;;13.60;99.90;;;;;;5075026;28;20458;-68
2022/09/25 01:23:54;;;;;;;60.83;30.40;;;13.50;99.90;;;;;;5079817;28;19934;-67
2022/09/25 01:26:54;;;;;;;71.82;32.88;;;13.60;99.90;;;;;;5081147;28;20016;-68
2022/09/25 01:29:38;;;;;;;65.72;31.90;;;13.50;99.90;;;;;;5077852;28;20024;-68
2022/09/25 01:32:28;;;;;;;70.65;35.33;;;13.50;99.90;;;;;;5079737;28;20107;-68
2022/09/25 01:35:01;;;;;;;64.85;33.65;;;13.40;99.90;;;;;;5082864;28;20024;-68
2022/09/25 01:37:54;;;;;;;72.93;35.33;;;13.40;99.90;;;;;;5080952;28;20517;-68
2022/09/25 01:40:34;;;;;;;73.47;35.28;;;13.40;99.90;;;;;;5076757;28;20600;-68
2022/09/25 01:43:31;;;;;;;77.82;36.55;;;13.40;99.90;;;;;;5081424;28;20078;-66
2022/09/25 01:46:01;;;;;;;70.40;34.42;;;13.40;99.90;;;;;;5085024;28;20494;-67
2022/09/25 01:48:30;;;;;;;79.97;37.22;;;13.30;99.90;;;;;;5092942;28;20099;-68
2022/09/25 01:51:01;;;;;;;73.65;35.75;;;13.30;99.90;;;;;;5074393;28;20548;-68
2022/09/25 01:53:41;;;;;;;81.45;39.40;;;13.30;99.90;;;;;;5082235;28;20019;-67
2022/09/25 01:56:15;;;;;;;82.57;38.47;;;13.30;99.90;;;;;;5082516;28;20025;-67
2022/09/25 01:58:47;;;;;;;82.20;38.97;;;13.30;99.90;;;;;;5076480;28;20013;-68
2022/09/25 02:01:21;;;;;;;83.53;36.45;;;13.30;99.90;;;;;;5080579;28;20013;-66
2022/09/25 02:03:55;;;;;;;82.45;36.22;;;13.30;99.90;;;;;;5079608;28;20093;-67
2022/09/25 02:06:21;;;;;;;83.45;40.13;;;13.20;99.90;;;;;;5083078;28;20025;-68
2022/09/25 02:08:53;;;;;;;77.72;37.33;;;13.20;99.90;;;;;;5073316;28;20070;-67
2022/09/25 02:11:19;;;;;;;84.15;38.97;;;13.20;99.90;;;;;;5073685;28;20048;-68
2022/09/25 02:13:48;;;;;;;78.60;38.45;;;13.20;99.90;;;;;;5077762;28;20051;-68
2022/09/25 02:16:24;;;;;;;80.70;36.58;;;13.20;99.90;;;;;;5074161;28;20020;-66
2022/09/25 02:22:03;;;;;;;78.30;35.50;;;13.20;99.90;;;;;;5082836;28;20031;-68
2022/09/25 02:24:45;;;;;;;82.35;36.95;;;13.20;99.90;;;;;;5082408;28;20016;-68
2022/09/25 02:27:11;;;;;;;80.88;36.75;;;13.20;99.90;;;;;;5078364;28;20020;-68
2022/09/25 02:29:37;;;;;;;73.53;34.78;;;13.20;99.90;;;;;;5082143;28;20020;-68
2022/09/25 02:32:07;;;;;;;79.75;36.25;;;13.20;99.90;;;;;;5086104;28;20382;-68
2022/09/25 02:34:33;;;;;;;83.32;37.50;;;13.20;99.90;;;;;;5079698;28;20016;-68
2022/09/25 02:36:59;;;;;;;74.30;34.80;;;13.20;99.90;;;;;;5085712;28;20036;-66
2022/09/25 02:39:28;;;;;;;73.07;34.88;;;13.20;99.90;;;;;;5074346;28;20013;-69
2022/09/25 02:42:13;;;;;;;72.15;33.13;;;13.20;99.90;;;;;;5072221;28;20420;-69
2022/09/25 02:44:45;;;;;;;69.95;31.58;;;13.20;99.90;;;;;;5071263;28;20024;-68
2022/09/25 02:47:21;;;;;;;66.05;33.08;;;13.20;99.90;;;;;;5082426;28;20058;-69
2022/09/25 02:50:04;;;;;;;65.00;30.42;;;13.20;99.90;;;;;;5087464;28;20027;-68
2022/09/25 02:53:03;;;;;;;68.95;29.75;;;13.20;99.90;;;;;;5080720;28;20046;-68
2022/09/25 02:55:43;;;;;;;68.38;27.77;;;13.10;99.90;;;;;;5071905;28;20019;-68
2022/09/25 02:58:12;;;;;;;63.55;27.88;;;13.10;99.90;;;;;;5073502;28;20036;-67
2022/09/25 03:00:41;;;;;;;65.47;28.38;;;13.10;99.90;;;;;;5102449;23;20426;-60
2022/09/25 03:03:10;;;;;;;66.63;29.20;;;13.10;99.90;;;;;;5088547;28;20027;-61
2022/09/25 03:05:37;;;;;;;65.03;27.73;;;13.10;99.90;;;;;;5079190;28;20028;-61
2022/09/25 03:10:47;;;;;;;60.03;25.25;;;13.10;99.90;;;;;;5085830;28;20031;-60
2022/09/25 03:13:30;;;;;;;59.33;24.42;;;13.10;99.90;;;;;;5091316;28;20023;-60
2022/09/25 03:15:59;;;;;;;55.03;22.63;;;13.10;99.90;;;;;;5091297;28;20019;-61
2022/09/25 03:18:26;;;;;;;50.67;23.55;;;13.10;99.90;;;;;;5089356;28;20024;-61
2022/09/25 03:20:51;;;;;;;46.25;21.33;;;13.10;99.90;;;;;;5085961;28;20024;-61
2022/09/25 03:23:17;;;;;;;44.47;20.55;;;13.10;99.90;;;;;;5086645;28;20031;-61
2022/09/25 03:25:43;;;;;;;41.53;18.48;;;13.00;99.90;;;;;;5086367;28;20020;-61
2022/09/25 03:28:12;;;;;;;42.75;18.20;;;13.00;99.90;;;;;;5090716;28;20095;-60
2022/09/25 03:30:39;;;;;;;41.72;17.67;;;13.00;99.90;;;;;;5090693;28;20053;-61
2022/09/25 03:33:09;;;;;;;35.90;17.30;;;13.00;99.90;;;;;;5084910;28;20020;-58
2022/09/25 03:35:38;;;;;;;46.08;17.75;;;13.00;99.90;;;;;;5082747;28;20103;-59
2022/09/25 03:38:06;;;;;;;38.08;15.10;;;13.00;99.90;;;;;;5090834;28;20022;-61
2022/09/25 03:40:31;;;;;;;31.17;14.32;;;12.90;99.90;;;;;;5085378;28;20488;-60
2022/09/25 03:42:57;;;;;;;30.40;15.05;;;13.00;99.90;;;;;;5089053;28;20036;-60
2022/09/25 03:45:22;;;;;;;30.48;14.93;;;13.00;99.90;;;;;;5085011;28;20027;-60
2022/09/25 03:47:48;;;;;;;34.50;15.25;;;13.00;99.90;;;;;;5089855;28;20047;-61
2022/09/25 03:50:13;;;;;;;34.72;14.13;;;13.00;99.90;;;;;;5089333;28;20035;-60
2022/09/25 03:52:39;;;;;;;37.03;13.25;;;13.00;99.90;;;;;;5091527;28;20094;-60
2022/09/25 03:55:05;;;;;;;30.05;12.93;;;13.00;99.90;;;;;;5090153;28;20439;-61
2022/09/25 03:57:31;;;;;;;26.58;13.20;;;12.90;99.90;;;;;;5089969;28;20016;-61
2022/09/25 04:00:00;;;;;;;33.75;13.65;;;12.90;99.90;;;;;;5086395;28;20477;-60
2022/09/25 04:02:27;;;;;;;26.02;12.40;;;12.90;99.90;;;;;;5085313;28;20055;-61
2022/09/25 04:04:53;;;;;;;30.55;12.90;;;13.00;99.90;;;;;;5081653;28;20035;-61
2022/09/25 04:07:20;;;;;;;29.08;11.57;;;12.90;99.90;;;;;;5090297;28;20043;-60
2022/09/25 04:09:45;;;;;;;21.80;11.32;;;12.90;99.90;;;;;;5088599;28;20016;-61
2022/09/25 04:12:11;;;;;;;23.00;10.35;;;12.90;99.90;;;;;;5081280;28;20024;-61
2022/09/25 04:14:37;;;;;;;25.30;9.30;;;12.90;99.90;;;;;;5087868;28;20020;-61
2022/09/25 04:17:03;;;;;;;17.05;8.73;;;12.90;99.90;;;;;;5090243;28;20027;-61
2022/09/25 04:19:29;;;;;;;20.77;8.27;;;12.90;99.90;;;;;;5091220;28;20051;-61
2022/09/25 04:21:55;;;;;;;21.15;6.90;;;12.90;99.90;;;;;;5093332;28;20035;-61
2022/09/25 04:27:04;;;;;;;16.60;5.88;;;12.90;99.90;;;;;;5087894;28;20161;-61
2022/09/25 04:29:31;;;;;;;12.98;6.05;;;12.90;99.90;;;;;;5093605;28;20111;-61
2022/09/25 04:34:41;;;;;;;13.80;5.60;;;12.80;99.90;;;;;;5092810;28;20039;-61
2022/09/25 04:37:06;;;;;;;20.98;5.85;;;12.90;99.90;;;;;;5094714;28;20028;-61
2022/09/25 04:39:32;;;;;;;18.13;4.85;;;12.80;99.90;;;;;;5093248;28;20035;-61
2022/09/25 04:41:57;;;;;;;11.68;5.53;;;12.80;99.90;;;;;;5085217;28;20027;-62
2022/09/25 04:44:23;;;;;;;7.75;5.07;;;12.80;99.90;;;;;;5094649;28;20347;-61
2022/09/25 04:46:48;;;;;;;13.18;5.20;;;12.80;99.90;;;;;;5093982;28;20047;-61
2022/09/25 04:49:14;;;;;;;16.60;4.82;;;12.80;99.90;;;;;;5087417;28;20032;-61
2022/09/25 04:51:39;;;;;;;14.82;5.03;;;12.80;99.90;;;;;;5088219;28;20012;-61
2022/09/25 04:54:05;;;;;;;25.15;5.25;;;12.70;99.90;;;;;;5090960;28;20413;-61
2022/09/25 04:56:30;;;;;;;19.73;4.97;;;12.70;99.90;;;;;;5085444;28;20036;-61
2022/09/25 04:58:56;;;;;;;16.40;4.88;;;12.70;99.90;;;;;;5094384;28;20073;-61
2022/09/25 05:01:21;;;;;;;19.88;4.22;;;12.80;99.90;;;;;;5093796;28;20035;-61
2022/09/25 05:03:49;;;;;;;12.30;4.28;;;12.80;99.90;;;;;;5092880;28;20077;-60
2022/09/25 05:06:14;;;;;;;9.95;3.83;;;12.80;99.90;;;;;;5093738;28;20031;-61
2022/09/25 05:08:40;;;;;;;17.88;4.28;;;12.70;99.90;;;;;;5094047;28;20020;-61
2022/09/25 05:11:06;;;;;;;14.25;3.70;;;12.70;99.90;;;;;;5091652;28;20111;-61
2022/09/25 05:13:32;;;;;;;16.35;3.65;;;12.70;99.90;;;;;;5088016;28;20048;-61
2022/09/25 05:15:58;;;;;;;11.57;3.65;;;12.70;99.90;;;;;;5088233;28;20063;-59
2022/09/25 05:18:23;;;;;;;14.93;3.80;;;12.70;99.90;;;;;;5093204;28;20040;-61
2022/09/25 05:20:50;;;;;;;20.63;4.35;;;12.80;99.90;;;;;;5094020;28;20008;-59
2022/09/25 05:23:16;;;;;;;11.73;2.65;;;12.70;99.90;;;;;;5093362;28;20482;-60
2022/09/25 05:25:41;;;;;;;12.07;3.88;;;12.70;99.90;;;;;;5091810;28;20115;-60
2022/09/25 05:28:09;;;;;;;13.18;3.38;;;12.70;99.90;;;;;;5093549;28;20119;-60
2022/09/25 05:30:35;;;;;;;10.07;3.13;;;12.80;99.90;;;;;;5093681;28;20080;-61
2022/09/25 05:33:01;;;;;;;16.48;3.20;;;12.70;99.90;;;;;;5091185;28;20470;-60
2022/09/25 05:35:30;;;;;;;10.80;3.30;;;12.70;99.90;;;;;;5086062;28;20061;-61
2022/09/25 05:37:56;;;;;;;9.85;3.08;;;12.70;99.90;;;;;;5093484;28;20016;-61
2022/09/25 05:40:22;;;;;;;15.68;3.38;;;12.70;99.90;;;;;;5093470;28;20031;-61
2022/09/25 05:42:48;;;;;;;14.82;3.83;;;12.70;99.90;;;;;;5091564;28;20063;-60
2022/09/25 05:45:15;;;;;;;26.77;4.13;;;12.70;99.90;;;;;;5086779;28;20081;-58
2022/09/25 05:47:42;;;;;;;12.60;2.95;;;12.70;99.90;;;;;;5093018;28;20024;-61
2022/09/25 05:50:09;;;;;;;12.40;2.70;;;12.70;99.90;;;;;;5092482;28;20024;-61
2022/09/25 05:52:35;;;;;;;10.80;3.00;;;12.70;99.90;;;;;;5092514;28;20031;-60
2022/09/25 05:55:02;;;;;;;11.85;2.65;;;12.70;99.90;;;;;;5089091;28;20040;-60
2022/09/25 05:57:32;;;;;;;12.85;2.45;;;12.70;99.90;;;;;;5092995;28;20119;-60
2022/09/25 05:59:58;;;;;;;12.55;2.35;;;12.60;99.90;;;;;;5093079;28;20547;-61
2022/09/25 06:02:24;;;;;;;14.98;2.40;;;12.60;99.90;;;;;;5087813;28;20032;-60
2022/09/25 06:04:49;;;;;;;17.40;3.20;;;12.60;99.90;;;;;;5092046;28;20492;-61
2022/09/25 06:07:15;;;;;;;16.63;2.33;;;12.50;99.90;;;;;;5093003;28;20022;-61
2022/09/25 06:09:40;;;;;;;18.58;2.65;;;12.50;99.90;;;;;;5092897;28;20028;-61
2022/09/25 06:12:06;;;;;;;11.35;2.22;;;12.50;99.90;;;;;;5092599;28;20059;-60
2022/09/25 06:14:34;;;;;;;10.45;2.08;;;12.50;99.90;;;;;;5087081;28;20411;-60
2022/09/25 06:17:00;;;;;;;16.25;2.33;;;12.50;99.90;;;;;;5089997;28;20027;-60
2022/09/25 06:19:28;;;;;;;16.70;1.83;;;12.40;99.90;;;;;;5091386;28;20089;-61
2022/09/25 06:21:53;;;;;;;21.02;2.25;;;12.40;99.90;;;;;;5087323;28;20115;-59
2022/09/25 06:24:19;;;;;;;17.77;2.78;;;12.40;99.90;;;;;;5086264;28;20091;-59
2022/09/25 06:26:44;;;;;;;11.48;2.22;;;12.40;99.90;;;;;;5089523;28;20016;-57
2022/09/25 06:29:10;;;;;;;18.30;2.53;;;12.40;99.90;;;;;;5092717;28;20016;-60
2022/09/25 06:31:36;;;;;;;15.63;2.63;;;12.30;99.90;;;;;;5090576;28;20028;-59
2022/09/25 06:34:03;;;;;;;17.35;2.35;;;12.30;99.90;;;;;;5089929;28;20559;-58
2022/09/25 06:36:28;;;;;;;21.00;2.80;;;12.30;99.90;;;;;;5090347;28;20016;-58
2022/09/25 06:38:54;;;;;;;17.17;3.65;;;12.30;99.90;;;;;;5091076;28;20027;-57
2022/09/25 06:41:20;;;;;;;10.27;2.65;;;12.20;99.90;;;;;;5085525;28;20044;-60
2022/09/25 06:43:48;;;;;;;16.20;3.13;;;12.20;99.90;;;;;;5090497;28;20054;-60
2022/09/25 06:46:14;;;;;;;12.35;3.65;;;12.20;99.90;;;;;;5085071;28;20115;-59
2022/09/25 06:48:40;;;;;;;20.88;3.05;;;12.20;99.90;;;;;;5089494;28;20099;-59
2022/09/25 06:51:07;;;;;;;12.95;3.08;;;12.20;99.90;;;;;;5082978;28;20034;-60
2022/09/25 06:53:33;;;;;;;15.48;3.90;;;12.20;99.90;;;;;;5087502;28;20488;-60
2022/09/25 06:55:59;;;;;;;13.38;3.72;;;12.10;99.90;;;;;;5088822;28;20111;-59
2022/09/25 06:58:25;;;;;;;21.42;3.47;;;12.10;99.90;;;;;;5090316;28;20107;-60
2022/09/25 07:00:54;;;;;;;15.95;4.03;;;12.10;99.90;;;;;;5084320;28;20040;-57
2022/09/25 07:06:06;;;;;;;15.70;3.38;;;12.10;99.90;;;;;;5085635;28;20043;-60
2022/09/25 07:08:32;;;;;;;15.35;3.70;;;12.00;99.90;;;;;;5085699;28;20383;-60
2022/09/25 07:10:58;;;;;;;11.77;3.67;;;12.00;99.90;;;;;;5088950;28;20040;-59
2022/09/25 07:13:27;;;;;;;11.02;4.05;;;12.00;99.90;;;;;;5087969;28;20034;-59
2022/09/25 07:16:14;;;;;;;21.45;4.80;;;12.00;99.90;;;;;;5088750;28;20078;-60
2022/09/25 07:18:40;;;;;;;23.50;4.15;;;12.00;99.90;;;;;;5086915;28;20099;-59
2022/09/25 07:21:09;;;;;;;17.85;3.83;;;12.00;99.90;;;;;;5084414;28;20103;-60
2022/09/25 07:23:35;;;;;;;10.95;3.50;;;12.00;99.90;;;;;;5087105;28;20016;-57
2022/09/25 07:26:09;;;;;;;17.15;4.63;;;12.10;99.90;;;;;;5088024;28;20050;-60
2022/09/25 07:28:36;;;;;;;16.95;3.97;;;12.10;99.90;;;;;;5088993;28;20027;-57
2022/09/25 07:31:20;;;;;;;18.90;4.05;;;12.20;99.90;;;;;;5088646;28;20036;-60
2022/09/25 07:33:46;;;;;;;24.17;4.03;;;12.20;99.90;;;;;;5081269;28;20028;-60
2022/09/25 07:36:12;;;;;;;12.57;3.33;;;12.30;99.90;;;;;;5085595;28;20073;-60
2022/09/25 07:38:38;;;;;;;16.17;4.47;;;12.30;99.90;;;;;;5088874;28;20019;-57
2022/09/25 07:41:05;;;;;;;15.35;3.60;;;12.40;99.90;;;;;;5088940;28;20049;-59
2022/09/25 07:43:33;;;;;;;10.82;4.00;;;12.30;99.90;;;;;;5086214;28;20081;-58
2022/09/25 07:46:00;;;;;;;15.35;3.05;;;12.40;99.90;;;;;;5082598;28;20477;-57
2022/09/25 07:48:26;;;;;;;15.82;3.80;;;12.40;99.90;;;;;;5088575;28;20081;-58
2022/09/25 07:50:51;;;;;;;15.20;3.58;;;12.40;99.90;;;;;;5089147;28;20015;-60
2022/09/25 07:53:17;;;;;;;17.33;3.17;;;12.50;99.90;;;;;;5085402;28;20107;-59
2022/09/25 07:55:44;;;;;;;28.40;4.13;;;12.50;99.90;;;;;;5085682;28;20043;-57
2022/09/25 07:58:10;;;;;;;25.63;4.63;;;12.60;99.90;;;;;;5087561;28;20024;-61
2022/09/25 08:00:36;;;;;;;13.55;3.28;;;12.70;99.90;;;;;;5088292;28;20080;-60
2022/09/25 08:03:02;;;;;;;13.73;3.97;;;12.80;99.90;;;;;;5085296;28;20439;-60
2022/09/25 08:05:28;;;;;;;14.27;2.90;;;12.80;99.90;;;;;;5085058;28;20024;-58
2022/09/25 08:07:54;;;;;;;17.52;3.22;;;12.90;99.90;;;;;;5090121;28;20626;-60
2022/09/25 08:10:20;;;;;;;22.67;4.78;;;13.00;99.90;;;;;;5081467;28;20047;-59
2022/09/25 08:12:46;;;;;;;11.60;3.13;;;13.10;99.90;;;;;;5086355;28;20032;-58
2022/09/25 08:15:13;;;;;;;15.10;2.35;;;13.20;99.90;;;;;;5089508;28;20051;-57
2022/09/25 08:17:39;;;;;;;15.38;4.00;;;13.30;99.90;;;;;;5088351;28;20009;-58
2022/09/25 08:20:06;;;;;;;12.68;2.08;;;13.30;99.90;;;;;;5086570;28;20521;-60
2022/09/25 08:22:32;;;;;;;12.60;1.67;;;13.40;99.90;;;;;;5087758;28;20062;-59
2022/09/25 08:25:01;;;;;;;13.55;2.45;;;13.40;99.90;;;;;;5089873;28;20466;-59
2022/09/25 08:27:26;;;;;;;19.30;1.65;;;13.40;99.90;;;;;;5088011;28;20012;-60
2022/09/25 08:29:52;;;;;;;9.07;1.50;;;13.40;99.90;;;;;;5081299;28;20027;-60
2022/09/25 08:32:17;;;;;;;15.10;2.25;;;13.50;99.90;;;;;;5088406;28;20050;-62
2022/09/25 08:34:43;;;;;;;13.63;1.33;;;13.50;99.90;;;;;;5088530;28;20489;-59
2022/09/25 08:37:09;;;;;;;13.35;1.48;;;13.50;99.90;;;;;;5087711;28;20477;-59
2022/09/25 08:39:34;;;;;;;16.48;1.63;;;13.60;99.90;;;;;;5084005;28;20024;-60
2022/09/25 08:42:00;;;;;;;18.15;3.28;;;13.60;99.90;;;;;;5085605;28;20039;-60
2022/09/25 08:44:43;;;;;;;9.35;1.83;;;13.60;99.90;;;;;;5084251;28;20069;-60
2022/09/25 08:50:12;;;;;;;14.55;1.83;;;13.80;99.90;;;;;;5083932;28;20554;-58
2022/09/25 08:52:45;;;;;;;12.52;2.40;;;13.80;99.90;;;;;;5085108;28;20032;-59
2022/09/25 08:56:13;;;;;;;19.70;2.05;;;13.90;99.90;;;;;;5086835;28;20023;-59
2022/09/25 08:58:17;;;;;;;16.88;2.30;;;14.00;99.90;;;;;;5083853;28;20473;-58
2022/09/25 09:00:44;;;;;;;10.23;2.08;;;14.10;99.90;;;;;;5085120;28;20493;-59
2022/09/25 09:03:11;;;;;;;6.88;1.40;;;14.30;99.90;;;;;;5113858;22;20515;-59
2022/09/25 09:05:40;;;;;;;6.00;1.58;;;14.40;99.90;;;;;;5087629;28;20032;-57
2022/09/25 09:08:17;;;;;;;6.65;1.10;;;14.60;99.90;;;;;;5103284;28;20055;-59
2022/09/25 09:10:49;;;;;;;9.05;1.75;;;14.80;99.90;;;;;;5103547;28;20584;-59
2022/09/25 09:13:36;;;;;;;12.93;1.30;;;15.10;99.90;;;;;;5085660;28;20038;-61
2022/09/25 09:16:09;;;;;;;10.73;2.40;;;15.20;99.90;;;;;;5100256;28;20063;-59
2022/09/25 09:18:40;;;;;;;11.20;1.45;;;15.30;99.90;;;;;;5103682;28;20059;-59
2022/09/25 09:21:21;;;;;;;15.38;2.90;;;15.40;99.90;;;;;;5110157;28;20034;-60
2022/09/25 09:24:07;;;;;;;11.52;0.93;;;15.70;99.90;;;;;;5106148;28;20110;-60
2022/09/25 09:26:50;;;;;;;9.43;1.23;;;15.50;99.90;;;;;;5107208;28;20032;-61
2022/09/25 09:29:21;;;;;;;10.02;1.27;;;15.20;99.90;;;;;;5108834;28;20035;-57
2022/09/25 09:32:10;;;;;;;20.30;1.58;;;14.80;99.90;;;;;;5101330;28;20413;-58
2022/09/25 09:34:45;;;;;;;6.13;1.20;;;14.50;99.90;;;;;;5102838;28;20028;-60
2022/09/25 09:37:35;;;;;;;10.75;1.55;;;14.30;99.90;;;;;;5088332;28;20115;-57
2022/09/25 09:40:15;;;;;;;10.18;1.50;;;14.20;99.90;;;;;;5068921;28;20031;-58
2022/09/25 09:42:48;;;;;;;5.47;1.02;;;14.20;99.90;;;;;;5085412;28;20107;-58
2022/09/25 09:45:19;;;;;;;7.80;1.20;;;14.30;99.90;;;;;;5101152;28;20023;-60
2022/09/25 09:47:52;;;;;;;9.80;1.30;;;14.50;99.90;;;;;;5104271;28;20023;-59
2022/09/25 09:50:20;;;;;;;7.00;2.00;;;14.80;99.90;;;;;;5102637;28;20042;-59
2022/09/25 09:52:53;;;;;;;8.75;1.60;;;14.90;99.90;;;;;;5101372;28;20020;-56
2022/09/25 09:55:40;;;;;;;3.75;1.13;;;15.00;99.90;;;;;;5098008;28;20409;-60
2022/09/25 09:58:17;;;;;;;6.78;1.45;;;15.00;99.90;;;;;;5095507;28;20023;-57
2022/09/25 10:00:44;;;;;;;6.43;1.15;;;15.10;99.90;;;;;;5092080;28;20024;-59
2022/09/25 10:03:22;;;;;;;6.95;1.10;;;15.30;99.90;;;;;;5082517;28;20031;-58
2022/09/25 10:05:52;;;;;;;4.22;1.23;;;15.50;99.90;;;;;;5098891;28;20035;-60
2022/09/25 10:08:17;;;;;;;9.50;1.50;;;15.70;99.90;;;;;;5105222;28;20031;-58
2022/09/25 10:10:53;;;;;;;6.32;0.90;;;15.80;99.90;;;;;;5100222;28;20024;-60
2022/09/25 10:13:31;;;;;;;12.32;1.33;;;15.60;99.90;;;;;;5097744;28;20492;-60
2022/09/25 10:16:09;;;;;;;11.43;1.25;;;15.50;99.90;;;;;;5101518;28;20032;-60
2022/09/25 10:19:19;;;;;;;4.35;1.00;;;15.50;99.90;;;;;;5092510;28;20371;-59
2022/09/25 10:21:47;;;;;;;5.90;1.20;;;15.60;99.90;;;;;;5040872;28;20057;-59
2022/09/25 10:24:50;;;;;;;7.47;1.10;;;15.90;99.90;;;;;;5047718;28;20549;-60
2022/09/25 10:27:37;;;;;;;7.07;1.13;;;16.20;99.90;;;;;;5075771;28;20070;-59
2022/09/25 10:30:06;;;;;;;7.53;1.33;;;16.50;99.90;;;;;;5095491;28;20027;-59
2022/09/25 10:32:40;;;;;;;6.45;0.88;;;16.50;99.90;;;;;;5096882;28;20143;-60
2022/09/25 10:35:12;;;;;;;7.32;2.10;;;16.70;99.90;;;;;;5099041;28;20035;-58
2022/09/25 10:37:37;;;;;;;5.22;1.15;;;16.80;99.90;;;;;;5094063;28;20073;-58
2022/09/25 10:40:24;;;;;;;12.65;2.53;;;16.80;99.90;;;;;;5083173;28;20039;-59
2022/09/25 10:43:02;;;;;;;2.88;0.80;;;16.80;99.90;;;;;;5094386;28;20032;-59
2022/09/25 10:45:32;;;;;;;6.28;1.00;;;16.80;99.90;;;;;;5083553;28;20432;-59
2022/09/25 10:50:42;;;;;;;17.98;1.27;;;16.60;99.90;;;;;;5089425;28;20394;-58
2022/09/25 10:53:27;;;;;;;11.40;1.35;;;16.80;99.90;;;;;;5095194;28;20055;-60
2022/09/25 10:56:00;;;;;;;5.28;1.08;;;16.90;99.90;;;;;;5092713;28;20035;-61
2022/09/25 10:58:35;;;;;;;2.22;0.63;;;16.90;99.90;;;;;;5096001;28;20020;-60
2022/09/25 11:01:02;;;;;;;6.80;0.88;;;16.80;99.90;;;;;;5098452;28;20088;-59
2022/09/25 11:03:38;;;;;;;11.02;2.28;;;16.70;99.90;;;;;;5082585;28;20039;-59
2022/09/25 11:06:19;;;;;;;4.40;1.33;;;16.70;99.90;;;;;;5096094;28;20024;-64
2022/09/25 11:08:48;;;;;;;8.20;1.20;;;17.10;99.90;;;;;;5091154;28;20076;-65
2022/09/25 11:11:20;;;;;;;1.92;0.85;;;17.20;99.90;;;;;;5107595;28;20439;-64
2022/09/25 11:13:51;;;;;;;6.00;0.98;;;17.70;99.90;;;;;;5089753;28;20062;-64
2022/09/25 11:16:19;;;;;;;4.40;1.13;;;17.90;99.90;;;;;;5101992;28;20027;-64
2022/09/25 11:19:10;;;;;;;6.28;1.15;;;17.70;99.90;;;;;;5096750;28;20035;-64
2022/09/25 11:21:49;;;;;;;3.75;0.75;;;17.60;99.90;;;;;;5101704;28;20488;-63
2022/09/25 11:24:14;;;;;;;3.15;0.70;;;17.60;99.90;;;;;;5098973;28;20027;-65
2022/09/25 11:26:50;;;;;;;6.47;1.10;;;17.80;99.90;;;;;;5101328;28;20425;-65
2022/09/25 11:29:43;;;;;;;3.97;1.02;;;17.80;99.90;;;;;;5106833;28;20098;-63
2022/09/25 11:32:31;;;;;;;3.00;0.73;;;17.60;99.90;;;;;;5097396;28;20400;-64
2022/09/25 11:35:19;;;;;;;8.88;1.10;;;17.20;99.90;;;;;;5095169;28;20027;-64
2022/09/25 11:37:50;;;;;;;8.63;0.80;;;17.50;99.90;;;;;;5080589;28;20043;-65
2022/09/25 11:43:18;;;;;;;4.32;0.90;;;17.60;99.90;;;;;;5096191;28;20089;-65
2022/09/25 11:46:01;;;;;;;5.53;0.90;;;17.20;99.90;;;;;;5100057;28;20393;-64
2022/09/25 11:48:47;;;;;;;7.20;0.63;;;17.00;99.90;;;;;;5085341;28;20040;-64
2022/09/25 11:51:18;;;;;;;4.15;0.60;;;16.90;99.90;;;;;;5101220;28;20502;-64
2022/09/25 11:53:46;;;;;;;7.30;0.85;;;17.10;99.90;;;;;;5100258;28;20039;-64
2022/09/25 11:56:48;;;;;;;4.07;0.82;;;17.30;99.90;;;;;;5101254;28;20026;-64
2022/09/25 11:59:51;;;;;;;4.28;0.88;;;17.50;99.90;;;;;;5072736;28;20020;-64
2022/09/25 12:02:40;;;;;;;5.00;0.82;;;17.30;99.90;;;;;;5100622;28;20027;-65
2022/09/25 12:05:39;;;;;;;9.88;0.85;;;17.00;99.90;;;;;;5084938;28;20024;-63
2022/09/25 12:08:50;;;;;;;6.38;0.75;;;16.90;99.90;;;;;;5095612;28;20016;-64
2022/09/25 12:11:19;;;;;;;5.88;0.80;;;16.90;99.90;;;;;;5087855;28;20015;-63
2022/09/25 12:13:54;;;;;;;7.68;0.60;;;17.10;99.90;;;;;;5099899;28;20015;-65
2022/09/25 12:16:40;;;;;;;7.15;1.20;;;17.60;99.90;;;;;;5106583;28;20035;-64
2022/09/25 12:19:27;;;;;;;2.83;0.85;;;18.40;99.90;;;;;;5090646;28;20096;-64
2022/09/25 12:22:04;;;;;;;5.10;0.90;;;19.20;99.90;;;;;;5103075;28;20020;-65
2022/09/25 12:24:48;;;;;;;17.75;1.52;;;19.30;99.90;;;;;;5080236;28;20413;-64
2022/09/25 12:27:40;;;;;;;7.90;1.30;;;18.80;99.90;;;;;;5107827;28;20032;-64
2022/09/25 12:30:19;;;;;;;9.50;1.20;;;18.10;99.90;;;;;;5102641;28;20063;-62
2022/09/25 12:33:09;;;;;;;10.63;1.13;;;17.90;99.90;;;;;;5089424;28;20486;-63
2022/09/25 12:35:59;;;;;;;4.72;0.88;;;18.10;99.90;;;;;;5095817;28;20031;-64
2022/09/25 12:38:33;;;;;;;4.72;1.10;;;18.50;99.90;;;;;;5074583;28;20058;-63
2022/09/25 12:41:15;;;;;;;7.45;0.95;;;18.80;99.90;;;;;;5092642;28;20478;-61
2022/09/25 12:43:58;;;;;;;4.95;1.25;;;19.20;99.90;;;;;;5106988;28;20035;-64
2022/09/25 12:46:34;;;;;;;9.10;2.00;;;19.10;99.90;;;;;;5099039;28;20024;-64
2022/09/25 12:49:41;;;;;;;4.40;1.08;;;19.20;99.90;;;;;;5094257;28;20054;-62
2022/09/25 12:52:15;;;;;;;5.10;1.02;;;19.20;99.90;;;;;;5082934;28;20047;-63
2022/09/25 12:54:53;;;;;;;;;;;19.30;99.90;;;;;;5096274;28;20062;-64
2022/09/25 12:57:37;;;;;;;7.07;1.00;;;19.20;99.90;;;;;;5110897;28;19958;-63
2022/09/25 13:00:02;;;;;;;6.40;1.35;;;18.80;99.90;;;;;;5083067;28;20031;-64
2022/09/25 13:02:58;;;;;;;8.68;1.67;;;18.80;99.90;;;;;;5100237;28;20102;-64
2022/09/25 13:05:41;;;;;;;8.30;1.63;;;18.40;99.90;;;;;;5095307;28;20043;-63
2022/09/25 13:08:09;;;;;;;8.57;1.85;;;17.90;99.90;;;;;;5096259;28;20038;-63
2022/09/25 13:10:49;;;;;;;4.35;1.55;;;17.60;99.90;;;;;;5098985;28;20037;-63
2022/09/25 13:13:18;;;;;;;4.93;1.30;;;17.80;99.90;;;;;;5102018;28;20386;-63
2022/09/25 13:15:59;;;;;;;9.20;1.42;;;18.30;99.90;;;;;;5100115;28;20044;-63
2022/09/25 13:18:28;;;;;;;7.30;1.58;;;18.90;99.90;;;;;;5099810;28;20031;-63
2022/09/25 13:20:54;;;;;;;4.40;1.48;;;19.30;99.90;;;;;;5082464;28;20521;-65
2022/09/25 13:23:39;;;;;;;7.15;1.77;;;19.30;99.90;;;;;;5100174;28;20040;-63
2022/09/25 13:26:12;;;;;;;3.53;1.35;;;19.60;99.90;;;;;;5094881;28;20039;-63
2022/09/25 13:28:50;;;;;;;5.18;1.20;;;19.80;99.90;;;;;;5102250;28;20554;-55